sensor_id;sensor_type;location;lat;lon;timestamp;temperature;humidity
48551;DHT22;34397;51.176;6.738;2023-12-22T00:00:11;4.00;91.40
48551;DHT22;34397;51.176;6.738;2023-12-22T00:02:44;4.00;91.10
48551;DHT22;34397;51.176;6.738;2023-12-22T00:05:16;3.90;91.10
48551;DHT22;34397;51.176;6.738;2023-12-22T00:07:48;3.90;91.40
48551;DHT22;34397;51.176;6.738;2023-12-22T00:10:21;4.00;91.60
48551;DHT22;34397;51.176;6.738;2023-12-22T00:12:53;4.00;91.10
48551;DHT22;34397;51.176;6.738;2023-12-22T00:15:24;4.00;91.20
48551;DHT22;34397;51.176;6.738;2023-12-22T00:17:58;4.00;91.10
48551;DHT22;34397;51.176;6.738;2023-12-22T00:20:30;3.90;91.30
48551;DHT22;34397;51.176;6.738;2023-12-22T00:23:02;3.90;91.20
48551;DHT22;34397;51.176;6.738;2023-12-22T00:25:34;3.90;91.30
48551;DHT22;34397;51.176;6.738;2023-12-22T00:28:06;4.00;91.60
48551;DHT22;34397;51.176;6.738;2023-12-22T00:30:37;4.00;91.00
48551;DHT22;34397;51.176;6.738;2023-12-22T00:33:11;4.10;91.50
48551;DHT22;34397;51.176;6.738;2023-12-22T00:35:42;4.00;91.00
48551;DHT22;34397;51.176;6.738;2023-12-22T00:38:14;4.10;91.40
48551;DHT22;34397;51.176;6.738;2023-12-22T00:40:46;4.10;91.40
48551;DHT22;34397;51.176;6.738;2023-12-22T00:43:18;4.20;91.10
48551;DHT22;34397;51.176;6.738;2023-12-22T00:45:50;4.20;91.10
48551;DHT22;34397;51.176;6.738;2023-12-22T00:48:23;4.30;90.70
48551;DHT22;34397;51.176;6.738;2023-12-22T00:50:55;4.30;90.70
48551;DHT22;34397;51.176;6.738;2023-12-22T00:53:27;4.30;90.60
48551;DHT22;34397;51.176;6.738;2023-12-22T00:55:59;4.40;91.10
48551;DHT22;34397;51.176;6.738;2023-12-22T00:58:31;4.50;90.80
48551;DHT22;34397;51.176;6.738;2023-12-22T01:01:03;4.50;91.20
48551;DHT22;34397;51.176;6.738;2023-12-22T01:03:36;4.60;91.30
48551;DHT22;34397;51.176;6.738;2023-12-22T01:06:08;4.50;91.40
48551;DHT22;34397;51.176;6.738;2023-12-22T01:08:40;4.50;91.40
48551;DHT22;34397;51.176;6.738;2023-12-22T01:11:12;4.50;91.20
48551;DHT22;34397;51.176;6.738;2023-12-22T01:13:44;4.60;91.30
48551;DHT22;34397;51.176;6.738;2023-12-22T01:16:16;4.60;91.40
48551;DHT22;34397;51.176;6.738;2023-12-22T01:18:51;4.60;91.20
48551;DHT22;34397;51.176;6.738;2023-12-22T01:21:23;4.50;91.30
48551;DHT22;34397;51.176;6.738;2023-12-22T01:23:55;4.50;91.40
48551;DHT22;34397;51.176;6.738;2023-12-22T01:26:26;4.40;91.30
48551;DHT22;34397;51.176;6.738;2023-12-22T01:28:59;4.50;91.40
48551;DHT22;34397;51.176;6.738;2023-12-22T01:31:30;4.40;91.50
48551;DHT22;34397;51.176;6.738;2023-12-22T01:34:04;4.40;91.70
48551;DHT22;34397;51.176;6.738;2023-12-22T01:36:35;4.30;91.90
48551;DHT22;34397;51.176;6.738;2023-12-22T01:39:07;4.30;92.10
48551;DHT22;34397;51.176;6.738;2023-12-22T01:41:39;4.30;92.20
48551;DHT22;34397;51.176;6.738;2023-12-22T01:44:11;4.30;91.50
48551;DHT22;34397;51.176;6.738;2023-12-22T01:46:43;4.30;91.20
48551;DHT22;34397;51.176;6.738;2023-12-22T01:49:17;4.30;91.30
48551;DHT22;34397;51.176;6.738;2023-12-22T01:51:49;4.30;91.10
48551;DHT22;34397;51.176;6.738;2023-12-22T01:54:21;4.30;91.20
48551;DHT22;34397;51.176;6.738;2023-12-22T01:56:54;4.30;91.10
48551;DHT22;34397;51.176;6.738;2023-12-22T01:59:26;4.30;90.90
48551;DHT22;34397;51.176;6.738;2023-12-22T02:02:01;4.30;90.90
48551;DHT22;34397;51.176;6.738;2023-12-22T02:04:35;4.40;91.00
48551;DHT22;34397;51.176;6.738;2023-12-22T02:07:08;4.40;90.90
48551;DHT22;34397;51.176;6.738;2023-12-22T02:09:41;4.40;90.90
48551;DHT22;34397;51.176;6.738;2023-12-22T02:12:13;4.50;90.90
48551;DHT22;34397;51.176;6.738;2023-12-22T02:14:45;4.50;90.90
48551;DHT22;34397;51.176;6.738;2023-12-22T02:17:21;4.50;90.90
48551;DHT22;34397;51.176;6.738;2023-12-22T02:19:58;4.60;91.00
48551;DHT22;34397;51.176;6.738;2023-12-22T02:22:31;4.60;91.00
48551;DHT22;34397;51.176;6.738;2023-12-22T02:25:04;4.60;91.20
48551;DHT22;34397;51.176;6.738;2023-12-22T02:27:42;4.60;91.10
48551;DHT22;34397;51.176;6.738;2023-12-22T02:30:22;4.60;91.20
48551;DHT22;34397;51.176;6.738;2023-12-22T02:33:00;4.70;91.60
48551;DHT22;34397;51.176;6.738;2023-12-22T02:35:36;4.70;91.30
48551;DHT22;34397;51.176;6.738;2023-12-22T02:38:11;4.70;91.10
48551;DHT22;34397;51.176;6.738;2023-12-22T02:40:44;4.70;91.20
48551;DHT22;34397;51.176;6.738;2023-12-22T02:43:16;4.70;91.10
48551;DHT22;34397;51.176;6.738;2023-12-22T02:45:50;4.70;90.90
48551;DHT22;34397;51.176;6.738;2023-12-22T02:48:22;4.70;91.00
48551;DHT22;34397;51.176;6.738;2023-12-22T02:50:54;4.70;90.80
48551;DHT22;34397;51.176;6.738;2023-12-22T02:53:27;4.70;90.60
48551;DHT22;34397;51.176;6.738;2023-12-22T02:55:59;4.70;90.90
48551;DHT22;34397;51.176;6.738;2023-12-22T02:58:31;4.70;90.80
48551;DHT22;34397;51.176;6.738;2023-12-22T03:01:03;4.80;91.00
48551;DHT22;34397;51.176;6.738;2023-12-22T03:03:34;4.80;90.90
48551;DHT22;34397;51.176;6.738;2023-12-22T03:06:06;4.80;90.60
48551;DHT22;34397;51.176;6.738;2023-12-22T03:08:39;4.80;90.80
48551;DHT22;34397;51.176;6.738;2023-12-22T03:11:11;4.80;90.90
48551;DHT22;34397;51.176;6.738;2023-12-22T03:13:43;4.80;90.90
48551;DHT22;34397;51.176;6.738;2023-12-22T03:16:15;4.80;90.80
48551;DHT22;34397;51.176;6.738;2023-12-22T03:18:47;4.80;90.80
48551;DHT22;34397;51.176;6.738;2023-12-22T03:21:19;4.90;90.80
48551;DHT22;34397;51.176;6.738;2023-12-22T03:23:52;4.90;90.70
48551;DHT22;34397;51.176;6.738;2023-12-22T03:26:26;4.90;90.60
48551;DHT22;34397;51.176;6.738;2023-12-22T03:28:58;4.90;90.50
48551;DHT22;34397;51.176;6.738;2023-12-22T03:31:30;4.90;90.50
48551;DHT22;34397;51.176;6.738;2023-12-22T03:34:02;4.90;90.50
48551;DHT22;34397;51.176;6.738;2023-12-22T03:36:34;4.90;90.50
48551;DHT22;34397;51.176;6.738;2023-12-22T03:39:07;4.90;90.50
48551;DHT22;34397;51.176;6.738;2023-12-22T03:41:39;4.90;90.50
48551;DHT22;34397;51.176;6.738;2023-12-22T03:44:11;4.90;90.50
48551;DHT22;34397;51.176;6.738;2023-12-22T03:46:43;4.80;90.50
48551;DHT22;34397;51.176;6.738;2023-12-22T03:49:15;4.80;90.60
48551;DHT22;34397;51.176;6.738;2023-12-22T03:51:47;4.80;90.50
48551;DHT22;34397;51.176;6.738;2023-12-22T03:54:20;4.80;90.60
48551;DHT22;34397;51.176;6.738;2023-12-22T03:56:52;4.80;90.40
48551;DHT22;34397;51.176;6.738;2023-12-22T03:59:24;4.80;90.40
48551;DHT22;34397;51.176;6.738;2023-12-22T04:01:56;4.80;90.50
48551;DHT22;34397;51.176;6.738;2023-12-22T04:04:31;4.80;90.50
48551;DHT22;34397;51.176;6.738;2023-12-22T04:07:03;4.80;90.10
48551;DHT22;34397;51.176;6.738;2023-12-22T04:09:38;4.80;89.80
48551;DHT22;34397;51.176;6.738;2023-12-22T04:12:09;4.80;90.00
48551;DHT22;34397;51.176;6.738;2023-12-22T04:14:41;4.90;89.30
48551;DHT22;34397;51.176;6.738;2023-12-22T04:17:13;4.90;89.10
48551;DHT22;34397;51.176;6.738;2023-12-22T04:19:45;4.90;88.50
48551;DHT22;34397;51.176;6.738;2023-12-22T04:22:17;4.90;88.20
48551;DHT22;34397;51.176;6.738;2023-12-22T04:24:50;4.90;88.60
48551;DHT22;34397;51.176;6.738;2023-12-22T04:27:22;5.00;88.40
48551;DHT22;34397;51.176;6.738;2023-12-22T04:29:54;5.00;89.20
48551;DHT22;34397;51.176;6.738;2023-12-22T04:32:25;5.10;89.80
48551;DHT22;34397;51.176;6.738;2023-12-22T04:34:57;5.20;89.70
48551;DHT22;34397;51.176;6.738;2023-12-22T04:37:29;5.30;89.80
48551;DHT22;34397;51.176;6.738;2023-12-22T04:40:03;5.30;88.50
48551;DHT22;34397;51.176;6.738;2023-12-22T04:42:35;5.30;88.50
48551;DHT22;34397;51.176;6.738;2023-12-22T04:45:07;5.30;88.30
48551;DHT22;34397;51.176;6.738;2023-12-22T04:47:39;5.30;88.40
48551;DHT22;34397;51.176;6.738;2023-12-22T04:50:11;5.20;88.10
48551;DHT22;34397;51.176;6.738;2023-12-22T04:52:43;5.20;88.90
48551;DHT22;34397;51.176;6.738;2023-12-22T04:55:16;5.20;89.40
48551;DHT22;34397;51.176;6.738;2023-12-22T04:57:48;5.10;89.60
48551;DHT22;34397;51.176;6.738;2023-12-22T05:00:20;5.20;89.80
48551;DHT22;34397;51.176;6.738;2023-12-22T05:02:52;5.20;89.60
48551;DHT22;34397;51.176;6.738;2023-12-22T05:05:24;5.20;89.80
48551;DHT22;34397;51.176;6.738;2023-12-22T05:07:55;5.30;89.70
48551;DHT22;34397;51.176;6.738;2023-12-22T05:10:29;5.30;89.50
48551;DHT22;34397;51.176;6.738;2023-12-22T05:13:00;5.30;89.60
48551;DHT22;34397;51.176;6.738;2023-12-22T05:15:32;5.40;89.40
48551;DHT22;34397;51.176;6.738;2023-12-22T05:18:04;5.40;89.10
48551;DHT22;34397;51.176;6.738;2023-12-22T05:20:36;5.40;88.60
48551;DHT22;34397;51.176;6.738;2023-12-22T05:23:08;5.40;88.80
48551;DHT22;34397;51.176;6.738;2023-12-22T05:25:41;5.50;88.60
48551;DHT22;34397;51.176;6.738;2023-12-22T05:28:13;5.50;88.60
48551;DHT22;34397;51.176;6.738;2023-12-22T05:30:45;5.50;87.40
48551;DHT22;34397;51.176;6.738;2023-12-22T05:33:17;5.60;88.20
48551;DHT22;34397;51.176;6.738;2023-12-22T05:35:49;5.70;87.50
48551;DHT22;34397;51.176;6.738;2023-12-22T05:38:21;5.70;86.70
48551;DHT22;34397;51.176;6.738;2023-12-22T05:40:54;5.70;86.30
48551;DHT22;34397;51.176;6.738;2023-12-22T05:43:26;5.80;86.00
48551;DHT22;34397;51.176;6.738;2023-12-22T05:45:58;5.80;85.80
48551;DHT22;34397;51.176;6.738;2023-12-22T05:48:30;5.80;85.20
48551;DHT22;34397;51.176;6.738;2023-12-22T05:51:02;5.90;85.80
48551;DHT22;34397;51.176;6.738;2023-12-22T05:53:37;5.90;85.00
48551;DHT22;34397;51.176;6.738;2023-12-22T05:56:20;5.90;84.00
48551;DHT22;34397;51.176;6.738;2023-12-22T05:58:52;5.90;84.40
48551;DHT22;34397;51.176;6.738;2023-12-22T06:01:25;5.90;84.30
48551;DHT22;34397;51.176;6.738;2023-12-22T06:03:57;5.90;84.30
48551;DHT22;34397;51.176;6.738;2023-12-22T06:06:29;6.00;84.10
48551;DHT22;34397;51.176;6.738;2023-12-22T06:09:01;6.00;84.50
48551;DHT22;34397;51.176;6.738;2023-12-22T06:11:34;6.10;84.30
48551;DHT22;34397;51.176;6.738;2023-12-22T06:14:06;6.10;83.60
48551;DHT22;34397;51.176;6.738;2023-12-22T06:16:38;6.10;83.70
48551;DHT22;34397;51.176;6.738;2023-12-22T06:19:11;6.20;83.80
48551;DHT22;34397;51.176;6.738;2023-12-22T06:21:43;6.20;83.80
48551;DHT22;34397;51.176;6.738;2023-12-22T06:24:15;6.20;83.90
48551;DHT22;34397;51.176;6.738;2023-12-22T06:26:48;6.20;83.80
48551;DHT22;34397;51.176;6.738;2023-12-22T06:29:20;6.20;83.80
48551;DHT22;34397;51.176;6.738;2023-12-22T06:31:55;6.20;84.10
48551;DHT22;34397;51.176;6.738;2023-12-22T06:34:27;6.20;84.50
48551;DHT22;34397;51.176;6.738;2023-12-22T06:36:59;6.20;83.70
48551;DHT22;34397;51.176;6.738;2023-12-22T06:39:31;6.30;83.50
48551;DHT22;34397;51.176;6.738;2023-12-22T06:42:06;6.30;84.00
48551;DHT22;34397;51.176;6.738;2023-12-22T06:44:42;6.30;84.30
48551;DHT22;34397;51.176;6.738;2023-12-22T06:47:14;6.40;83.90
48551;DHT22;34397;51.176;6.738;2023-12-22T06:49:46;6.40;84.50
48551;DHT22;34397;51.176;6.738;2023-12-22T06:52:17;6.40;84.40
48551;DHT22;34397;51.176;6.738;2023-12-22T06:54:49;6.40;82.50
48551;DHT22;34397;51.176;6.738;2023-12-22T06:57:22;6.30;81.70
48551;DHT22;34397;51.176;6.738;2023-12-22T06:59:54;6.20;84.30
48551;DHT22;34397;51.176;6.738;2023-12-22T07:02:26;6.10;84.70
48551;DHT22;34397;51.176;6.738;2023-12-22T07:05:30;6.00;86.00
48551;DHT22;34397;51.176;6.738;2023-12-22T07:08:06;6.00;86.70
48551;DHT22;34397;51.176;6.738;2023-12-22T07:10:39;5.90;86.90
48551;DHT22;34397;51.176;6.738;2023-12-22T07:13:12;5.90;87.20
48551;DHT22;34397;51.176;6.738;2023-12-22T07:15:44;5.90;87.50
48551;DHT22;34397;51.176;6.738;2023-12-22T07:18:16;5.80;87.80
48551;DHT22;34397;51.176;6.738;2023-12-22T07:20:48;5.80;88.20
48551;DHT22;34397;51.176;6.738;2023-12-22T07:23:20;5.80;88.60
48551;DHT22;34397;51.176;6.738;2023-12-22T07:25:53;5.80;88.80
48551;DHT22;34397;51.176;6.738;2023-12-22T07:28:26;5.70;89.50
48551;DHT22;34397;51.176;6.738;2023-12-22T07:30:58;5.60;90.50
48551;DHT22;34397;51.176;6.738;2023-12-22T07:33:29;5.60;90.10
48551;DHT22;34397;51.176;6.738;2023-12-22T07:36:01;5.60;90.10
48551;DHT22;34397;51.176;6.738;2023-12-22T07:38:34;5.60;90.60
48551;DHT22;34397;51.176;6.738;2023-12-22T07:41:06;5.60;90.80
48551;DHT22;34397;51.176;6.738;2023-12-22T07:43:39;5.50;90.60
48551;DHT22;34397;51.176;6.738;2023-12-22T07:46:17;5.50;90.80
48551;DHT22;34397;51.176;6.738;2023-12-22T07:48:49;5.40;90.80
48551;DHT22;34397;51.176;6.738;2023-12-22T07:51:21;5.40;90.80
48551;DHT22;34397;51.176;6.738;2023-12-22T07:53:53;5.40;91.10
48551;DHT22;34397;51.176;6.738;2023-12-22T07:56:25;5.50;91.40
48551;DHT22;34397;51.176;6.738;2023-12-22T07:58:58;5.50;91.50
48551;DHT22;34397;51.176;6.738;2023-12-22T08:01:30;5.50;91.30
48551;DHT22;34397;51.176;6.738;2023-12-22T08:04:02;5.40;90.90
48551;DHT22;34397;51.176;6.738;2023-12-22T08:06:35;5.50;91.30
48551;DHT22;34397;51.176;6.738;2023-12-22T08:09:07;5.60;91.40
48551;DHT22;34397;51.176;6.738;2023-12-22T08:11:39;5.60;90.90
48551;DHT22;34397;51.176;6.738;2023-12-22T08:14:12;5.70;91.00
48551;DHT22;34397;51.176;6.738;2023-12-22T08:16:44;5.70;91.00
48551;DHT22;34397;51.176;6.738;2023-12-22T08:19:16;5.80;91.10
48551;DHT22;34397;51.176;6.738;2023-12-22T08:21:48;5.80;91.20
48551;DHT22;34397;51.176;6.738;2023-12-22T08:24:20;5.90;91.20
48551;DHT22;34397;51.176;6.738;2023-12-22T08:26:52;5.90;91.20
48551;DHT22;34397;51.176;6.738;2023-12-22T08:29:25;6.00;91.20
48551;DHT22;34397;51.176;6.738;2023-12-22T08:31:57;6.10;91.10
48551;DHT22;34397;51.176;6.738;2023-12-22T08:34:29;6.10;91.40
48551;DHT22;34397;51.176;6.738;2023-12-22T08:37:01;6.10;91.60
48551;DHT22;34397;51.176;6.738;2023-12-22T08:39:33;6.20;91.40
48551;DHT22;34397;51.176;6.738;2023-12-22T08:42:05;6.20;91.30
48551;DHT22;34397;51.176;6.738;2023-12-22T08:44:38;6.30;91.30
48551;DHT22;34397;51.176;6.738;2023-12-22T08:47:10;6.30;91.50
48551;DHT22;34397;51.176;6.738;2023-12-22T08:49:42;6.40;91.20
48551;DHT22;34397;51.176;6.738;2023-12-22T08:52:14;6.40;91.30
48551;DHT22;34397;51.176;6.738;2023-12-22T08:54:46;6.40;91.00
48551;DHT22;34397;51.176;6.738;2023-12-22T08:57:18;6.50;91.10
48551;DHT22;34397;51.176;6.738;2023-12-22T08:59:51;6.50;90.90
48551;DHT22;34397;51.176;6.738;2023-12-22T09:02:23;6.60;90.80
48551;DHT22;34397;51.176;6.738;2023-12-22T09:04:56;6.60;90.60
48551;DHT22;34397;51.176;6.738;2023-12-22T09:07:28;6.60;90.60
48551;DHT22;34397;51.176;6.738;2023-12-22T09:10:00;6.60;90.40
48551;DHT22;34397;51.176;6.738;2023-12-22T09:12:34;6.60;90.70
48551;DHT22;34397;51.176;6.738;2023-12-22T09:15:07;6.60;90.80
48551;DHT22;34397;51.176;6.738;2023-12-22T09:17:39;6.70;90.80
48551;DHT22;34397;51.176;6.738;2023-12-22T09:20:12;6.70;90.70
48551;DHT22;34397;51.176;6.738;2023-12-22T09:22:44;6.80;90.60
48551;DHT22;34397;51.176;6.738;2023-12-22T09:25:16;6.80;90.70
48551;DHT22;34397;51.176;6.738;2023-12-22T09:27:47;6.90;90.80
48551;DHT22;34397;51.176;6.738;2023-12-22T09:30:21;6.90;90.70
48551;DHT22;34397;51.176;6.738;2023-12-22T09:32:52;6.90;90.70
48551;DHT22;34397;51.176;6.738;2023-12-22T09:35:24;7.00;90.70
48551;DHT22;34397;51.176;6.738;2023-12-22T09:37:57;7.00;90.60
48551;DHT22;34397;51.176;6.738;2023-12-22T09:40:29;7.00;90.80
48551;DHT22;34397;51.176;6.738;2023-12-22T09:43:02;7.00;90.50
48551;DHT22;34397;51.176;6.738;2023-12-22T09:45:38;7.00;90.60
48551;DHT22;34397;51.176;6.738;2023-12-22T09:48:11;6.90;90.70
48551;DHT22;34397;51.176;6.738;2023-12-22T09:50:47;6.90;90.70
48551;DHT22;34397;51.176;6.738;2023-12-22T09:53:20;7.00;90.80
48551;DHT22;34397;51.176;6.738;2023-12-22T09:55:53;7.00;90.70
48551;DHT22;34397;51.176;6.738;2023-12-22T09:58:25;7.00;90.70
48551;DHT22;34397;51.176;6.738;2023-12-22T10:00:59;7.00;90.70
48551;DHT22;34397;51.176;6.738;2023-12-22T10:03:33;7.10;90.80
48551;DHT22;34397;51.176;6.738;2023-12-22T10:06:05;7.10;90.80
48551;DHT22;34397;51.176;6.738;2023-12-22T10:08:38;7.10;90.80
48551;DHT22;34397;51.176;6.738;2023-12-22T10:11:11;7.10;90.90
48551;DHT22;34397;51.176;6.738;2023-12-22T10:13:44;7.10;90.90
48551;DHT22;34397;51.176;6.738;2023-12-22T10:16:17;7.10;90.90
48551;DHT22;34397;51.176;6.738;2023-12-22T10:18:49;7.00;91.20
48551;DHT22;34397;51.176;6.738;2023-12-22T10:21:21;7.00;91.30
48551;DHT22;34397;51.176;6.738;2023-12-22T10:23:53;7.00;91.40
48551;DHT22;34397;51.176;6.738;2023-12-22T10:26:25;7.00;91.40
48551;DHT22;34397;51.176;6.738;2023-12-22T10:28:56;7.00;91.40
48551;DHT22;34397;51.176;6.738;2023-12-22T10:31:39;7.00;91.40
48551;DHT22;34397;51.176;6.738;2023-12-22T10:34:11;7.10;91.50
48551;DHT22;34397;51.176;6.738;2023-12-22T10:36:43;7.10;91.40
48551;DHT22;34397;51.176;6.738;2023-12-22T10:39:15;7.20;91.50
48551;DHT22;34397;51.176;6.738;2023-12-22T10:41:48;7.20;91.60
48551;DHT22;34397;51.176;6.738;2023-12-22T10:44:20;7.20;91.70
48551;DHT22;34397;51.176;6.738;2023-12-22T10:46:57;7.20;91.90
48551;DHT22;34397;51.176;6.738;2023-12-22T10:49:30;7.20;92.00
48551;DHT22;34397;51.176;6.738;2023-12-22T10:52:04;7.20;92.00
48551;DHT22;34397;51.176;6.738;2023-12-22T10:54:36;7.30;92.00
48551;DHT22;34397;51.176;6.738;2023-12-22T10:57:10;7.20;92.00
48551;DHT22;34397;51.176;6.738;2023-12-22T10:59:45;7.20;92.00
48551;DHT22;34397;51.176;6.738;2023-12-22T11:02:19;7.20;92.00
48551;DHT22;34397;51.176;6.738;2023-12-22T11:05:00;7.30;91.80
48551;DHT22;34397;51.176;6.738;2023-12-22T11:07:36;7.30;92.00
48551;DHT22;34397;51.176;6.738;2023-12-22T11:10:10;7.30;91.80
48551;DHT22;34397;51.176;6.738;2023-12-22T11:12:44;7.30;91.80
48551;DHT22;34397;51.176;6.738;2023-12-22T11:15:18;7.50;92.00
48551;DHT22;34397;51.176;6.738;2023-12-22T11:17:52;7.40;91.90
48551;DHT22;34397;51.176;6.738;2023-12-22T11:20:25;7.50;92.00
48551;DHT22;34397;51.176;6.738;2023-12-22T11:22:58;7.50;91.80
48551;DHT22;34397;51.176;6.738;2023-12-22T11:25:31;7.50;92.00
48551;DHT22;34397;51.176;6.738;2023-12-22T11:28:05;7.50;91.80
48551;DHT22;34397;51.176;6.738;2023-12-22T11:30:38;7.60;91.80
48551;DHT22;34397;51.176;6.738;2023-12-22T11:33:12;7.60;91.70
48551;DHT22;34397;51.176;6.738;2023-12-22T11:35:46;7.60;91.70
48551;DHT22;34397;51.176;6.738;2023-12-22T11:38:18;7.60;91.60
48551;DHT22;34397;51.176;6.738;2023-12-22T11:40:52;7.70;91.50
48551;DHT22;34397;51.176;6.738;2023-12-22T11:43:25;7.70;91.40
48551;DHT22;34397;51.176;6.738;2023-12-22T11:46:00;7.80;91.30
48551;DHT22;34397;51.176;6.738;2023-12-22T11:48:34;7.70;91.20
48551;DHT22;34397;51.176;6.738;2023-12-22T11:51:12;7.70;91.30
48551;DHT22;34397;51.176;6.738;2023-12-22T11:53:45;7.80;91.30
48551;DHT22;34397;51.176;6.738;2023-12-22T11:56:17;7.80;91.40
48551;DHT22;34397;51.176;6.738;2023-12-22T11:58:52;7.90;91.20
48551;DHT22;34397;51.176;6.738;2023-12-22T12:01:25;7.90;91.00
48551;DHT22;34397;51.176;6.738;2023-12-22T12:04:02;8.00;91.10
48551;DHT22;34397;51.176;6.738;2023-12-22T12:06:36;8.00;90.70
48551;DHT22;34397;51.176;6.738;2023-12-22T12:09:10;8.10;90.90
48551;DHT22;34397;51.176;6.738;2023-12-22T12:12:09;8.10;90.70
48551;DHT22;34397;51.176;6.738;2023-12-22T12:14:43;8.20;90.50
48551;DHT22;34397;51.176;6.738;2023-12-22T12:17:16;8.20;90.10
48551;DHT22;34397;51.176;6.738;2023-12-22T12:19:52;8.20;90.30
48551;DHT22;34397;51.176;6.738;2023-12-22T12:22:24;8.30;90.50
48551;DHT22;34397;51.176;6.738;2023-12-22T12:24:56;8.30;90.20
48551;DHT22;34397;51.176;6.738;2023-12-22T12:27:28;8.40;90.30
48551;DHT22;34397;51.176;6.738;2023-12-22T12:30:06;8.40;90.00
48551;DHT22;34397;51.176;6.738;2023-12-22T12:32:42;8.30;90.00
48551;DHT22;34397;51.176;6.738;2023-12-22T12:35:18;8.40;90.00
48551;DHT22;34397;51.176;6.738;2023-12-22T12:37:51;8.40;89.60
48551;DHT22;34397;51.176;6.738;2023-12-22T12:40:24;8.40;90.00
48551;DHT22;34397;51.176;6.738;2023-12-22T12:42:56;8.40;89.30
48551;DHT22;34397;51.176;6.738;2023-12-22T12:45:28;8.50;89.80
48551;DHT22;34397;51.176;6.738;2023-12-22T12:48:02;8.50;88.60
48551;DHT22;34397;51.176;6.738;2023-12-22T12:50:36;8.60;88.60
48551;DHT22;34397;51.176;6.738;2023-12-22T12:53:08;8.60;87.40
48551;DHT22;34397;51.176;6.738;2023-12-22T12:55:40;8.60;88.60
48551;DHT22;34397;51.176;6.738;2023-12-22T12:58:12;8.60;88.50
48551;DHT22;34397;51.176;6.738;2023-12-22T13:00:44;8.60;88.40
48551;DHT22;34397;51.176;6.738;2023-12-22T13:03:16;8.60;87.90
48551;DHT22;34397;51.176;6.738;2023-12-22T13:05:49;8.60;88.00
48551;DHT22;34397;51.176;6.738;2023-12-22T13:08:21;8.60;88.10
48551;DHT22;34397;51.176;6.738;2023-12-22T13:11:00;8.60;88.20
48551;DHT22;34397;51.176;6.738;2023-12-22T13:13:40;8.60;88.90
48551;DHT22;34397;51.176;6.738;2023-12-22T13:16:13;8.60;89.50
48551;DHT22;34397;51.176;6.738;2023-12-22T13:18:49;8.60;89.60
48551;DHT22;34397;51.176;6.738;2023-12-22T13:21:22;8.50;90.10
48551;DHT22;34397;51.176;6.738;2023-12-22T13:24:10;8.40;90.00
48551;DHT22;34397;51.176;6.738;2023-12-22T13:26:44;8.30;90.30
48551;DHT22;34397;51.176;6.738;2023-12-22T13:29:16;8.20;90.60
48551;DHT22;34397;51.176;6.738;2023-12-22T13:31:48;8.20;90.90
48551;DHT22;34397;51.176;6.738;2023-12-22T13:34:20;8.20;91.10
48551;DHT22;34397;51.176;6.738;2023-12-22T13:36:53;8.20;91.20
48551;DHT22;34397;51.176;6.738;2023-12-22T13:39:27;8.20;91.10
48551;DHT22;34397;51.176;6.738;2023-12-22T13:41:59;8.20;91.00
48551;DHT22;34397;51.176;6.738;2023-12-22T13:44:31;8.20;90.90
48551;DHT22;34397;51.176;6.738;2023-12-22T13:47:04;8.10;90.90
48551;DHT22;34397;51.176;6.738;2023-12-22T13:49:36;8.10;91.00
48551;DHT22;34397;51.176;6.738;2023-12-22T13:52:24;8.10;90.70
48551;DHT22;34397;51.176;6.738;2023-12-22T13:54:57;8.10;90.60
48551;DHT22;34397;51.176;6.738;2023-12-22T13:57:32;8.10;90.10
48551;DHT22;34397;51.176;6.738;2023-12-22T14:00:26;8.10;90.40
48551;DHT22;34397;51.176;6.738;2023-12-22T14:03:01;8.20;90.30
48551;DHT22;34397;51.176;6.738;2023-12-22T14:05:34;8.20;90.40
48551;DHT22;34397;51.176;6.738;2023-12-22T14:08:07;8.20;90.30
48551;DHT22;34397;51.176;6.738;2023-12-22T14:10:44;8.30;90.80
48551;DHT22;34397;51.176;6.738;2023-12-22T14:13:17;8.30;90.90
48551;DHT22;34397;51.176;6.738;2023-12-22T14:15:49;8.20;91.20
48551;DHT22;34397;51.176;6.738;2023-12-22T14:18:21;8.00;91.80
48551;DHT22;34397;51.176;6.738;2023-12-22T14:20:53;7.90;91.70
48551;DHT22;34397;51.176;6.738;2023-12-22T14:23:26;8.00;91.80
48551;DHT22;34397;51.176;6.738;2023-12-22T14:25:58;7.90;92.00
48551;DHT22;34397;51.176;6.738;2023-12-22T14:28:30;7.90;92.00
48551;DHT22;34397;51.176;6.738;2023-12-22T14:31:02;7.90;92.10
48551;DHT22;34397;51.176;6.738;2023-12-22T14:33:34;7.80;91.90
48551;DHT22;34397;51.176;6.738;2023-12-22T14:36:06;7.90;92.20
48551;DHT22;34397;51.176;6.738;2023-12-22T14:38:39;7.80;91.90
48551;DHT22;34397;51.176;6.738;2023-12-22T14:41:11;7.80;92.00
48551;DHT22;34397;51.176;6.738;2023-12-22T14:43:43;7.80;92.10
48551;DHT22;34397;51.176;6.738;2023-12-22T14:46:15;7.80;92.00
48551;DHT22;34397;51.176;6.738;2023-12-22T14:48:47;7.80;91.70
48551;DHT22;34397;51.176;6.738;2023-12-22T14:51:18;7.80;91.70
48551;DHT22;34397;51.176;6.738;2023-12-22T14:53:52;7.80;91.80
48551;DHT22;34397;51.176;6.738;2023-12-22T14:56:23;7.90;91.80
48551;DHT22;34397;51.176;6.738;2023-12-22T14:58:55;7.90;91.70
48551;DHT22;34397;51.176;6.738;2023-12-22T15:01:27;7.90;91.70
48551;DHT22;34397;51.176;6.738;2023-12-22T15:03:59;7.90;91.60
48551;DHT22;34397;51.176;6.738;2023-12-22T15:06:32;7.80;91.50
48551;DHT22;34397;51.176;6.738;2023-12-22T15:09:06;7.80;91.50
48551;DHT22;34397;51.176;6.738;2023-12-22T15:11:41;7.80;91.70
48551;DHT22;34397;51.176;6.738;2023-12-22T15:14:13;7.90;91.90
48551;DHT22;34397;51.176;6.738;2023-12-22T15:16:45;7.80;92.20
48551;DHT22;34397;51.176;6.738;2023-12-22T15:19:17;7.90;92.30
48551;DHT22;34397;51.176;6.738;2023-12-22T15:21:49;7.90;92.40
48551;DHT22;34397;51.176;6.738;2023-12-22T15:24:22;7.80;92.40
48551;DHT22;34397;51.176;6.738;2023-12-22T15:26:56;7.80;92.20
48551;DHT22;34397;51.176;6.738;2023-12-22T15:29:28;7.70;92.10
48551;DHT22;34397;51.176;6.738;2023-12-22T15:32:02;7.70;92.40
48551;DHT22;34397;51.176;6.738;2023-12-22T15:34:34;7.60;92.30
48551;DHT22;34397;51.176;6.738;2023-12-22T15:37:06;7.70;92.30
48551;DHT22;34397;51.176;6.738;2023-12-22T15:39:39;7.70;92.30
48551;DHT22;34397;51.176;6.738;2023-12-22T15:42:11;7.60;92.00
48551;DHT22;34397;51.176;6.738;2023-12-22T15:44:43;7.70;92.20
48551;DHT22;34397;51.176;6.738;2023-12-22T15:47:15;7.70;92.00
48551;DHT22;34397;51.176;6.738;2023-12-22T15:49:47;7.70;91.90
48551;DHT22;34397;51.176;6.738;2023-12-22T15:52:18;7.70;92.10
48551;DHT22;34397;51.176;6.738;2023-12-22T15:54:52;7.80;91.90
48551;DHT22;34397;51.176;6.738;2023-12-22T15:57:23;7.70;91.80
48551;DHT22;34397;51.176;6.738;2023-12-22T15:59:55;7.80;91.80
48551;DHT22;34397;51.176;6.738;2023-12-22T16:02:27;7.80;91.70
48551;DHT22;34397;51.176;6.738;2023-12-22T16:04:59;7.70;91.60
48551;DHT22;34397;51.176;6.738;2023-12-22T16:07:31;7.80;91.80
48551;DHT22;34397;51.176;6.738;2023-12-22T16:10:06;7.80;91.90
48551;DHT22;34397;51.176;6.738;2023-12-22T16:12:38;7.80;92.00
48551;DHT22;34397;51.176;6.738;2023-12-22T16:15:12;7.70;91.90
48551;DHT22;34397;51.176;6.738;2023-12-22T16:17:43;7.80;92.40
48551;DHT22;34397;51.176;6.738;2023-12-22T16:20:15;7.90;92.10